Time;durP1;ratioP1;P1;durP2;ratioP2;P2;SDS_P1;SDS_P2;PMS_P1;PMS_P2;Temp;Humidity;BMP_temperature;BMP_pressure;BME280_temperature;BME280_humidity;BME280_pressure;Samples;Min_cycle;Max_cycle;Signal;HPM_P1;HPM_P2
2021/07/22 00:03:48;;;;;;;9.88;7.00;;;;;;;19.54;80.53;100851.23;2675951;88;21050;-62
2021/07/22 00:07:50;;;;;;;11.83;8.35;;;;;;;19.55;80.23;100859.66;2676018;88;21078;-62
2021/07/22 00:11:52;;;;;;;13.18;8.23;;;;;;;19.59;80.24;100853.42;2680459;87;21078;-63
2021/07/22 00:15:53;;;;;;;12.15;9.38;;;;;;;19.59;80.20;100854.28;2710197;87;21084;-63
2021/07/22 00:19:55;;;;;;;12.90;8.63;;;;;;;19.57;79.98;100848.22;2710392;87;21078;-62
2021/07/22 00:23:57;;;;;;;13.68;8.05;;;;;;;19.52;79.95;100848.73;2710073;87;21082;-63
2021/07/22 00:28:00;;;;;;;13.03;8.45;;;;;;;19.48;79.93;100844.69;2689816;87;21146;-62
2021/07/22 00:32:03;;;;;;;15.85;8.05;;;;;;;19.43;80.25;100846.21;2664912;88;21043;-63
2021/07/22 00:36:12;;;;;;;10.30;8.03;;;;;;;19.47;80.96;100843.02;2710255;87;21113;-63
2021/07/22 00:40:15;;;;;;;12.15;7.30;;;;;;;19.55;80.70;100842.12;2679075;88;20995;-62
2021/07/22 00:44:17;;;;;;;12.10;9.08;;;;;;;19.57;80.56;100845.52;2710189;87;21031;-63
2021/07/22 00:48:18;;;;;;;13.62;8.83;;;;;;;19.64;80.60;100842.95;2710147;87;21066;-63
2021/07/22 00:52:20;;;;;;;12.50;8.15;;;;;;;19.68;80.65;100842.44;2710207;87;21023;-63
2021/07/22 00:56:22;;;;;;;11.73;8.10;;;;;;;19.74;80.63;100843.61;2678910;88;21067;-62
2021/07/22 01:00:24;;;;;;;14.43;8.93;;;;;;;19.79;80.37;100844.45;2709962;87;21074;-62
2021/07/22 01:04:26;;;;;;;10.90;8.13;;;;;;;19.85;80.20;100841.05;2709786;87;21137;-62
2021/07/22 01:08:28;;;;;;;13.28;8.60;;;;;;;19.87;79.87;100844.94;2710303;87;21030;-63
2021/07/22 01:12:30;;;;;;;11.18;7.35;;;;;;;19.81;79.70;100842.42;2677920;88;21059;-63
2021/07/22 01:16:33;;;;;;;8.90;7.37;;;;;;;19.83;79.91;100850.66;2702053;88;22355;-63
2021/07/22 01:20:35;;;;;;;15.15;8.20;;;;;;;19.85;80.01;100839.70;2667250;89;21087;-63
2021/07/22 01:24:37;;;;;;;12.50;8.33;;;;;;;19.82;80.12;100845.45;2702046;88;21019;-64
2021/07/22 01:28:38;;;;;;;10.78;8.23;;;;;;;19.76;79.66;100849.68;2667483;89;21122;-63
2021/07/22 01:32:41;;;;;;;10.70;6.45;;;;;;;19.77;80.25;100845.14;2702256;88;21584;-63
2021/07/22 01:36:43;;;;;;;14.78;7.97;;;;;;;19.81;80.29;100843.77;2667580;88;21031;-62
2021/07/22 01:40:45;;;;;;;12.10;7.97;;;;;;;19.78;80.40;100842.25;2702196;86;21890;-63
2021/07/22 01:44:47;;;;;;;12.78;8.45;;;;;;;19.69;80.43;100842.78;2667531;89;21051;-63
2021/07/22 01:48:49;;;;;;;15.88;8.35;;;;;;;19.65;80.84;100839.23;2702460;88;21166;-63
2021/07/22 01:52:51;;;;;;;18.65;9.58;;;;;;;19.63;81.02;100834.52;2667849;89;21070;-63
2021/07/22 01:56:53;;;;;;;20.55;8.83;;;;;;;19.58;81.64;100840.95;2701770;86;21548;-63
2021/07/22 02:00:54;;;;;;;12.00;7.95;;;;;;;19.50;81.90;100837.27;2667576;89;21051;-62
2021/07/22 02:04:56;;;;;;;15.93;7.35;;;;;;;19.46;82.21;100840.47;2702289;88;21024;-62
2021/07/22 02:08:58;;;;;;;12.50;8.38;;;;;;;19.49;82.69;100831.53;2667501;89;21058;-63
2021/07/22 02:13:00;;;;;;;10.93;7.22;;;;;;;19.58;82.86;100840.95;2702486;88;21071;-62
2021/07/22 02:17:03;;;;;;;9.58;7.10;;;;;;;19.63;82.80;100835.88;2667709;89;20968;-62
2021/07/22 02:21:06;;;;;;;13.75;8.25;;;;;;;19.68;82.61;100837.05;2702077;88;21118;-62
2021/07/22 02:25:10;;;;;;;9.23;7.58;;;;;;;19.75;82.50;100839.91;2667701;89;21046;-62
2021/07/22 02:29:12;;;;;;;10.85;7.62;;;;;;;19.76;81.96;100830.78;2702314;88;21102;-62
2021/07/22 02:33:14;;;;;;;15.70;8.35;;;;;;;19.80;81.54;100819.97;2667925;89;21039;-62
2021/07/22 02:37:15;;;;;;;14.70;9.10;;;;;;;19.81;81.20;100820.30;2702213;88;21034;-63
2021/07/22 02:41:17;;;;;;;12.58;7.45;;;;;;;19.86;81.11;100823.02;2667604;89;21130;-63
2021/07/22 02:45:19;;;;;;;14.73;9.13;;;;;;;19.87;80.81;100831.45;2702092;88;21628;-62
2021/07/22 02:49:23;;;;;;;14.50;8.00;;;;;;;19.80;80.28;100824.02;2667524;89;21079;-62
2021/07/22 02:53:24;;;;;;;10.85;7.12;;;;;;;19.74;80.54;100833.31;2702209;88;21031;-62
2021/07/22 02:57:28;;;;;;;13.88;8.95;;;;;;;19.70;80.78;100835.02;2701640;88;21055;-63
2021/07/22 03:01:30;;;;;;;11.48;8.85;;;;;;;19.68;80.62;100836.22;2702246;88;21015;-62
2021/07/22 03:05:31;;;;;;;15.98;7.95;;;;;;;19.65;80.52;100837.89;2667500;89;21063;-63
2021/07/22 03:09:33;;;;;;;17.92;7.83;;;;;;;19.64;80.64;100829.46;2678372;88;21093;-63
2021/07/22 03:13:35;;;;;;;13.98;8.63;;;;;;;19.55;80.74;100838.08;2667369;89;21086;-64
2021/07/22 03:17:37;;;;;;;13.65;7.28;;;;;;;19.37;80.90;100835.59;2702149;88;21043;-63
2021/07/22 03:21:39;;;;;;;10.18;6.85;;;;;;;19.26;81.42;100837.64;2667463;89;21142;-62
2021/07/22 03:25:41;;;;;;;9.98;7.55;;;;;;;19.18;82.21;100838.15;2696779;88;21662;-63
2021/07/22 03:29:43;;;;;;;12.20;8.30;;;;;;;19.20;82.74;100832.91;2697437;88;21094;-63
2021/07/22 03:33:45;;;;;;;10.60;6.62;;;;;;;19.22;82.56;100838.14;2697888;87;21074;-62
2021/07/22 03:37:47;;;;;;;9.58;7.10;;;;;;;19.24;82.63;100838.28;2662982;89;21090;-63
2021/07/22 03:41:48;;;;;;;15.90;8.10;;;;;;;19.26;82.94;100836.29;2697803;88;21046;-63
2021/07/22 03:45:59;;;;;;;12.82;8.60;;;;;;;19.32;83.44;100836.09;2663219;89;21027;-63
2021/07/22 03:50:02;;;;;;;10.45;7.87;;;;;;;19.42;83.66;100838.61;2698372;86;21027;-63
2021/07/22 03:54:05;;;;;;;12.03;8.28;;;;;;;19.46;83.46;100838.62;2663549;89;21063;-64
2021/07/22 03:58:07;;;;;;;13.58;7.80;;;;;;;19.49;83.14;100840.13;2699739;88;21036;-63
2021/07/22 04:02:08;;;;;;;16.87;7.80;;;;;;;19.47;82.70;100840.80;2663083;89;21031;-64
2021/07/22 04:06:11;;;;;;;12.53;6.92;;;;;;;19.42;82.84;100842.66;2699689;88;21031;-63
2021/07/22 04:10:13;;;;;;;13.35;8.78;;;;;;;19.47;82.68;100842.16;2663973;89;21019;-63
2021/07/22 04:14:14;;;;;;;12.75;8.43;;;;;;;19.52;82.85;100838.42;2702973;86;21103;-63
2021/07/22 04:18:16;;;;;;;16.35;7.20;;;;;;;19.62;82.63;100831.49;2676842;88;21537;-64
2021/07/22 04:22:17;;;;;;;11.68;8.23;;;;;;;19.73;82.46;100833.84;2705875;87;21058;-65
2021/07/22 04:26:19;;;;;;;11.12;6.80;;;;;;;19.85;82.44;100827.56;2704889;87;21113;-64
2021/07/22 04:30:21;;;;;;;9.93;6.97;;;;;;;19.88;82.42;100836.66;2707817;87;21616;-64
2021/07/22 04:34:23;;;;;;;11.12;7.95;;;;;;;19.98;82.93;100838.69;2707273;87;20971;-63
2021/07/22 04:38:25;;;;;;;18.10;7.47;;;;;;;20.09;82.83;100842.86;2705591;87;21097;-64
2021/07/22 04:42:29;;;;;;;14.38;6.78;;;;;;;20.14;83.71;100838.27;2704409;87;21098;-63
2021/07/22 04:46:31;;;;;;;11.78;7.78;;;;;;;20.14;83.40;100846.36;2707141;87;21039;-64
2021/07/22 04:50:33;;;;;;;12.40;7.83;;;;;;;20.11;83.53;100839.47;2705567;87;21121;-64
2021/07/22 04:54:35;;;;;;;13.62;7.80;;;;;;;19.96;83.54;100835.32;2707122;87;21515;-64
2021/07/22 04:58:36;;;;;;;12.07;7.92;;;;;;;19.89;84.45;100845.61;2679006;88;20988;-64
2021/07/22 05:02:38;;;;;;;13.28;6.92;;;;;;;19.95;84.92;100836.83;2710578;87;21070;-63
2021/07/22 05:06:40;;;;;;;12.90;7.25;;;;;;;20.02;84.92;100837.81;2679375;88;21086;-63
2021/07/22 05:10:41;;;;;;;15.08;8.03;;;;;;;20.05;84.52;100841.53;2710847;87;21054;-63
2021/07/22 05:14:43;;;;;;;9.98;7.10;;;;;;;20.02;84.72;100839.16;2655921;88;21018;-64
2021/07/22 05:18:45;;;;;;;12.78;7.87;;;;;;;20.11;84.73;100839.47;2618818;91;21054;-64
2021/07/22 05:22:46;;;;;;;10.00;7.00;;;;;;;20.20;84.63;100844.83;2628856;90;22279;-63
2021/07/22 05:26:49;;;;;;;10.85;6.80;;;;;;;20.26;83.95;100846.84;2628816;90;21084;-64
2021/07/22 05:30:51;;;;;;;12.37;6.90;;;;;;;20.32;83.97;100847.48;2628969;90;21077;-64
2021/07/22 05:34:53;;;;;;;10.30;7.62;;;;;;;20.38;84.01;100848.64;2597936;91;21567;-63
2021/07/22 05:38:54;;;;;;;8.45;7.28;;;;;;;20.47;84.17;100846.21;2629343;90;21029;-63
2021/07/22 05:42:56;;;;;;;11.30;8.33;;;;;;;20.59;83.10;100845.30;2629226;90;21109;-63
2021/07/22 05:46:58;;;;;;;15.83;8.10;;;;;;;20.69;82.77;100844.56;2618461;91;21082;-63
2021/07/22 05:51:04;;;;;;;10.72;8.38;;;;;;;20.85;82.03;100854.98;2618755;90;21667;-63
2021/07/22 05:55:07;;;;;;;13.32;7.33;;;;;;;20.93;80.99;100853.55;2622626;90;21089;-64
2021/07/22 05:59:09;;;;;;;83.72;16.17;;;;;;;21.01;81.39;100854.50;2622611;90;21090;-64
2021/07/22 06:03:10;;;;;;;14.00;6.55;;;;;;;21.07;80.85;100850.56;2622599;90;21061;-63
2021/07/22 06:07:12;;;;;;;13.65;8.00;;;;;;;21.13;79.59;100855.77;2622878;90;21007;-63
2021/07/22 06:11:15;;;;;;;14.58;7.20;;;;;;;21.10;79.00;100852.90;2622536;90;23366;-63
2021/07/22 06:15:17;;;;;;;13.38;6.85;;;;;;;21.18;79.94;100851.17;2645212;88;21051;-63
2021/07/22 06:19:19;;;;;;;16.48;6.78;;;;;;;21.29;79.67;100851.24;2703001;88;21066;-64
2021/07/22 06:23:21;;;;;;;12.95;6.80;;;;;;;21.40;78.88;100846.72;2668261;89;21063;-63
2021/07/22 06:27:22;;;;;;;8.68;6.62;;;;;;;21.49;78.56;100848.34;2702716;88;21078;-63
2021/07/22 06:31:24;;;;;;;15.15;7.12;;;;;;;21.60;77.53;100848.40;2668392;89;20999;-63
2021/07/22 06:35:26;;;;;;;20.32;8.35;;;;;;;21.69;77.23;100849.19;2703135;88;20987;-63
2021/07/22 06:39:33;;;;;;;12.63;8.35;;;;;;;21.83;77.08;100844.30;2668308;89;21027;-63
2021/07/22 06:43:34;;;;;;;15.50;7.25;;;;;;;21.97;76.70;100849.38;2703383;88;21035;-64
2021/07/22 06:47:39;;;;;;;8.30;6.95;;;;;;;22.11;75.88;100842.26;2668716;89;21047;-63
2021/07/22 06:51:41;;;;;;;12.28;6.97;;;;;;;22.30;74.64;100842.70;2703680;88;21067;-64
2021/07/22 06:55:43;;;;;;;10.18;7.70;;;;;;;22.39;73.89;100846.13;2668865;89;21114;-63
2021/07/22 06:59:45;;;;;;;9.03;6.42;;;;;;;22.47;73.11;100849.28;2703806;88;21060;-63
2021/07/22 07:03:46;;;;;;;11.75;7.33;;;;;;;22.52;71.88;100850.89;2668782;89;21015;-63
2021/07/22 07:07:48;;;;;;;56.18;14.73;;;;;;;22.57;72.03;100850.33;2703508;88;21059;-63
2021/07/22 07:11:50;;;;;;;11.28;7.83;;;;;;;22.49;71.85;100843.16;2703482;88;21560;-63
2021/07/22 07:15:51;;;;;;;66.02;17.50;;;;;;;22.57;71.61;100846.27;2703035;88;21051;-63
2021/07/22 07:19:53;;;;;;;16.35;9.78;;;;;;;22.68;72.24;100851.16;2703731;88;21102;-63
2021/07/22 07:23:55;;;;;;;11.43;6.85;;;;;;;22.77;71.52;100848.67;2703657;88;21019;-63
2021/07/22 07:27:56;;;;;;;12.30;7.72;;;;;;;22.97;70.06;100848.02;2668829;89;21051;-63
2021/07/22 07:32:00;;;;;;;15.28;8.68;;;;;;;23.08;69.07;100843.41;2703385;87;21079;-63
2021/07/22 07:36:05;;;;;;;10.05;7.10;;;;;;;23.12;70.37;100843.87;2704045;88;21596;-64
2021/07/22 07:40:08;;;;;;;13.43;7.45;;;;;;;23.24;68.81;100846.38;2703976;88;21079;-63
2021/07/22 07:44:11;;;;;;;12.70;7.62;;;;;;;23.33;68.45;100839.47;2701585;87;21094;-63
2021/07/22 07:48:13;;;;;;;12.68;7.83;;;;;;;23.35;68.77;100844.19;2703579;88;21011;-62
2021/07/22 07:52:15;;;;;;;11.93;7.75;;;;;;;23.45;68.83;100836.55;2668697;89;21683;-63
2021/07/22 07:56:18;;;;;;;10.88;8.35;;;;;;;23.46;69.03;100840.94;2702970;88;21072;-63
2021/07/22 08:00:20;;;;;;;10.55;8.23;;;;;;;23.51;68.46;100841.71;2666788;89;21016;-63
2021/07/22 08:04:22;;;;;;;14.45;8.03;;;;;;;23.71;67.78;100838.28;2701711;86;21079;-64
2021/07/22 08:08:24;;;;;;;10.13;7.97;;;;;;;23.83;66.82;100842.09;2666463;89;21023;-63
2021/07/22 08:12:26;;;;;;;13.65;8.08;;;;;;;23.89;66.79;100841.82;2700682;88;21027;-63
2021/07/22 08:16:28;;;;;;;11.40;7.17;;;;;;;23.91;67.87;100846.03;2663997;88;21692;-63
2021/07/22 08:20:30;;;;;;;12.53;7.90;;;;;;;24.09;66.48;100832.45;2701701;86;21457;-63
2021/07/22 08:24:33;;;;;;;12.30;8.38;;;;;;;24.22;65.98;100830.31;2670970;89;21509;-63
2021/07/22 08:28:34;;;;;;;10.95;7.03;;;;;;;24.42;65.42;100833.61;2671466;88;21027;-63
2021/07/22 08:32:36;;;;;;;12.73;8.60;;;;;;;24.45;64.91;100830.48;2670848;89;21104;-62
2021/07/22 08:36:38;;;;;;;11.33;7.55;;;;;;;24.49;65.39;100829.02;2667096;88;21102;-63
2021/07/22 08:40:41;;;;;;;12.13;7.17;;;;;;;24.53;65.02;100831.64;2658104;89;21059;-64
2021/07/22 08:44:43;;;;;;;16.93;8.13;;;;;;;24.58;64.09;100821.01;2658432;89;21108;-62
2021/07/22 08:48:45;;;;;;;13.22;7.53;;;;;;;24.57;63.49;100823.41;2659851;89;21135;-63
2021/07/22 08:52:48;;;;;;;10.90;7.42;;;;;;;24.59;63.92;100825.41;2658900;89;21126;-63
2021/07/22 08:56:51;;;;;;;9.38;6.40;;;;;;;24.68;63.04;100820.06;2660191;89;21075;-65
2021/07/22 09:00:56;;;;;;;10.28;6.97;;;;;;;24.74;63.96;100819.77;2662631;89;21054;-63
2021/07/22 09:05:01;;;;;;;14.65;7.75;;;;;;;24.84;62.35;100822.11;2661767;89;21115;-63
2021/07/22 09:09:19;;;;;;;10.53;6.28;;;;;;;24.95;63.54;100820.11;2659258;89;21086;-64
2021/07/22 09:13:24;;;;;;;9.93;6.05;;;;;;;24.97;62.70;100819.09;2659347;89;21031;-63
2021/07/22 09:17:27;;;;;;;7.87;6.25;;;;;;;25.01;62.38;100814.91;2646860;89;21139;-62
2021/07/22 09:21:29;;;;;;;9.05;5.62;;;;;;;25.23;60.54;100823.17;2645050;90;21072;-63
2021/07/22 09:25:45;;;;;;;8.05;6.05;;;;;;;25.41;61.37;100820.84;2645186;89;21111;-64
2021/07/22 09:30:13;;;;;;;9.85;6.05;;;;;;;25.52;59.27;100809.34;2647605;90;21079;-63
2021/07/22 09:34:24;;;;;;;43.73;10.30;;;;;;;25.60;59.39;100811.00;2648301;90;21435;-62
2021/07/22 09:38:30;;;;;;;7.25;5.85;;;;;;;25.71;59.97;100814.95;2645377;88;21135;-62
2021/07/22 09:42:48;;;;;;;9.30;6.55;;;;;;;25.86;59.69;100804.64;2645322;90;21547;-63
2021/07/22 09:46:52;;;;;;;8.88;5.05;;;;;;;26.05;60.45;100798.78;2648656;88;21044;-63
2021/07/22 09:50:54;;;;;;;7.70;5.85;;;;;;;26.17;59.22;100792.16;2648724;90;21585;-63
2021/07/22 09:54:56;;;;;;;9.75;6.17;;;;;;;26.44;58.55;100795.27;2648832;90;21095;-62
2021/07/22 09:58:57;;;;;;;9.83;5.90;;;;;;;26.57;57.07;100790.24;2648961;90;21035;-62
2021/07/22 10:03:02;;;;;;;8.03;5.62;;;;;;;26.58;57.35;100790.03;2648907;90;21055;-63
2021/07/22 10:07:05;;;;;;;10.13;6.22;;;;;;;26.56;56.63;100789.94;2649060;90;21079;-63
2021/07/22 10:11:07;;;;;;;43.45;10.88;;;;;;;26.40;57.36;100786.67;2648939;90;21115;-63
2021/07/22 10:15:11;;;;;;;10.08;5.22;;;;;;;26.50;59.68;100790.28;2653274;89;21083;-63
2021/07/22 10:19:12;;;;;;;9.03;5.50;;;;;;;26.58;57.52;100785.95;2629671;90;21094;-63
2021/07/22 10:23:14;;;;;;;8.63;6.22;;;;;;;26.72;57.70;100780.37;2630069;90;21067;-62
2021/07/22 10:27:23;;;;;;;12.15;6.37;;;;;;;26.69;55.43;100779.45;2629491;90;21003;-62
2021/07/22 10:31:26;;;;;;;8.93;6.12;;;;;;;26.66;55.74;100776.11;2629584;89;21126;-62
2021/07/22 10:35:33;;;;;;;12.53;6.25;;;;;;;26.84;55.53;100775.06;2630042;89;21535;-64
2021/07/22 10:40:10;;;;;;;8.08;5.40;;;;;;;26.74;55.90;100774.19;2629752;89;21066;-63
2021/07/22 10:44:24;;;;;;;7.53;5.22;;;;;;;26.70;55.86;100767.48;2629509;89;21051;-63
2021/07/22 10:48:27;;;;;;;10.53;6.67;;;;;;;26.84;53.76;100769.60;2629724;90;21059;-64
2021/07/22 10:53:07;;;;;;;8.03;4.85;;;;;;;26.73;54.73;100763.79;2629049;89;21146;-64
2021/07/22 10:57:34;;;;;;;9.40;6.65;;;;;;;26.79;53.63;100759.34;2628877;90;21099;-63
2021/07/22 11:01:48;;;;;;;6.15;5.33;;;;;;;26.89;54.90;100762.97;2629529;89;21023;-64
2021/07/22 11:05:57;;;;;;;6.58;5.10;;;;;;;26.59;54.00;100756.76;2629212;90;21047;-62
2021/07/22 11:09:59;;;;;;;10.32;6.28;;;;;;;26.46;52.90;100750.36;2629730;89;21090;-64
2021/07/22 11:14:02;;;;;;;11.15;5.40;;;;;;;26.63;54.40;100753.92;2629544;89;21127;-63
2021/07/22 11:18:50;;;;;;;10.45;5.05;;;;;;;26.63;54.52;100744.38;2620347;89;21063;-62
2021/07/22 11:22:51;;;;;;;6.72;4.67;;;;;;;26.74;54.37;100740.09;2618798;90;21051;-63
2021/07/22 11:27:04;;;;;;;9.10;5.85;;;;;;;26.62;52.77;100738.58;2619035;90;21123;-63
2021/07/22 11:31:09;;;;;;;8.00;6.37;;;;;;;26.51;52.93;100744.22;2618428;91;20999;-63
2021/07/22 11:35:12;;;;;;;11.80;6.23;;;;;;;26.37;54.56;100747.58;2618486;90;21116;-62
2021/07/22 11:39:19;;;;;;;8.18;6.35;;;;;;;26.18;55.11;100748.84;2618612;90;21043;-62
2021/07/22 11:43:42;;;;;;;8.23;6.35;;;;;;;25.99;55.86;100752.48;2615875;90;22222;-62
2021/07/22 11:47:45;;;;;;;7.28;5.72;;;;;;;25.71;55.60;100747.67;2618205;90;21091;-62
2021/07/22 11:51:50;;;;;;;11.00;6.42;;;;;;;25.42;56.46;100752.56;2618228;90;21102;-63
2021/07/22 11:55:53;;;;;;;9.23;6.42;;;;;;;25.24;56.93;100748.63;2618120;91;21044;-62
2021/07/22 11:59:55;;;;;;;7.62;6.15;;;;;;;25.09;57.24;100748.86;2618355;90;21075;-63
2021/07/22 12:03:57;;;;;;;9.60;6.55;;;;;;;25.01;58.52;100747.70;2618086;90;21063;-63
2021/07/22 12:08:20;;;;;;;9.78;7.78;;;;;;;24.90;58.48;100745.09;2617994;90;21047;-63
2021/07/22 12:12:25;;;;;;;10.70;6.12;;;;;;;24.85;59.00;100746.77;2617867;90;21099;-63
2021/07/22 12:16:28;;;;;;;11.38;7.80;;;;;;;24.76;58.67;100746.13;2617789;89;21118;-62
2021/07/22 12:20:31;;;;;;;10.95;6.83;;;;;;;24.72;59.29;100746.21;2617969;90;21541;-63
2021/07/22 12:24:39;;;;;;;10.65;6.33;;;;;;;24.71;60.28;100745.39;2617828;90;21098;-63
2021/07/22 12:28:40;;;;;;;10.50;7.03;;;;;;;24.64;59.18;100738.58;2617772;91;21079;-63
2021/07/22 12:33:03;;;;;;;11.48;6.30;;;;;;;24.62;59.75;100738.47;2618136;89;21600;-63
2021/07/22 12:37:05;;;;;;;8.60;6.83;;;;;;;24.55;59.60;100737.09;2617806;89;21087;-63
2021/07/22 12:41:07;;;;;;;8.95;6.78;;;;;;;24.49;60.16;100741.51;2618091;91;21144;-63
2021/07/22 12:45:15;;;;;;;8.95;6.70;;;;;;;24.51;59.60;100734.48;2616090;90;21058;-63
2021/07/22 12:49:22;;;;;;;10.18;6.53;;;;;;;24.53;59.51;100731.03;2614044;90;21058;-63
2021/07/22 12:53:33;;;;;;;7.37;5.65;;;;;;;24.59;59.03;100726.14;2610138;90;21039;-63
2021/07/22 12:57:40;;;;;;;10.32;5.55;;;;;;;24.63;58.28;100723.82;2614962;90;21071;-63
2021/07/22 13:01:43;;;;;;;9.83;5.90;;;;;;;24.64;59.43;100722.27;2615601;91;21031;-66
2021/07/22 13:05:45;;;;;;;8.63;5.62;;;;;;;24.61;59.98;100722.69;2613985;91;21043;-64
2021/07/22 13:09:46;;;;;;;8.60;5.30;;;;;;;24.70;58.81;100718.39;2613546;90;21126;-65
2021/07/22 13:13:49;;;;;;;12.90;7.05;;;;;;;24.75;59.30;100719.95;2613976;91;21049;-62
2021/07/22 13:17:51;;;;;;;8.65;5.92;;;;;;;24.80;59.03;100707.43;2616377;90;21114;-64
2021/07/22 13:21:52;;;;;;;7.95;6.17;;;;;;;24.86;57.97;100706.27;2619182;90;21124;-63
2021/07/22 13:25:55;;;;;;;8.95;5.17;;;;;;;24.91;62.47;100704.59;2617667;90;21045;-64
2021/07/22 13:29:56;;;;;;;26.27;8.68;;;;;;;24.84;60.23;100702.41;2617730;90;21063;-68
2021/07/22 13:33:58;;;;;;;8.15;5.92;;;;;;;24.73;62.85;100707.08;2655069;89;21039;-72
2021/07/22 13:38:02;;;;;;;13.72;5.33;;;;;;;24.62;62.26;100701.25;2654883;89;21087;-74
2021/07/22 13:42:06;;;;;;;7.10;4.75;;;;;;;24.50;63.07;100701.55;2656245;89;21007;-70
2021/07/22 13:46:08;;;;;;;9.40;4.35;;;;;;;24.36;61.29;100700.70;2655857;89;21051;-68
2021/07/22 13:50:11;;;;;;;8.83;4.78;;;;;;;24.19;62.56;100701.09;2658195;89;21166;-68
2021/07/22 13:54:13;;;;;;;7.90;3.95;;;;;;;24.04;63.84;100695.84;2658261;88;21090;-68
2021/07/22 13:58:15;;;;;;;11.12;5.30;;;;;;;23.97;64.86;100692.22;2658070;89;21042;-69
2021/07/22 14:02:16;;;;;;;16.23;5.47;;;;;;;23.88;63.50;100688.88;2658398;89;21074;-68
2021/07/22 14:06:20;;;;;;;13.83;6.50;;;;;;;23.74;64.47;100684.44;2658118;89;21050;-68
2021/07/22 14:10:22;;;;;;;8.03;5.03;;;;;;;23.68;64.71;100680.66;2656458;89;21150;-70
2021/07/22 14:14:23;;;;;;;10.70;5.12;;;;;;;23.62;65.02;100678.23;2658249;89;21456;-69
2021/07/22 14:18:26;;;;;;;6.92;4.72;;;;;;;23.59;65.28;100675.92;2667544;88;21078;-67
2021/07/22 14:22:27;;;;;;;9.93;5.20;;;;;;;23.55;65.17;100671.94;2672664;89;21070;-73
2021/07/22 14:26:30;;;;;;;14.25;5.47;;;;;;;23.52;66.42;100670.99;2666240;89;21099;-69
2021/07/22 14:30:32;;;;;;;13.03;4.30;;;;;;;23.51;65.79;100667.42;2666820;89;21035;-70
2021/07/22 14:34:34;;;;;;;17.73;5.20;;;;;;;23.52;65.70;100663.67;2666969;89;21577;-70
2021/07/22 14:38:35;;;;;;;9.55;4.47;;;;;;;23.54;65.56;100662.12;2666954;89;21023;-70
2021/07/22 14:42:37;;;;;;;9.08;5.58;;;;;;;23.56;65.63;100657.83;2664297;89;21075;-68
2021/07/22 14:46:39;;;;;;;55.35;13.80;;;;;;;23.57;66.74;100651.36;2664356;89;21070;-69
2021/07/22 14:50:42;;;;;;;22.05;5.37;;;;;;;23.58;68.57;100650.31;2664420;89;21062;-70
2021/07/22 14:54:44;;;;;;;8.55;5.28;;;;;;;23.62;68.36;100648.89;2664724;89;21067;-70
2021/07/22 14:58:46;;;;;;;7.60;4.58;;;;;;;23.62;66.98;100643.46;2664349;89;21007;-68
2021/07/22 15:02:48;;;;;;;8.65;4.95;;;;;;;23.66;67.43;100643.36;2664039;89;21048;-69
2021/07/22 15:06:50;;;;;;;6.20;3.90;;;;;;;23.69;69.67;100632.09;2664005;89;21114;-69
2021/07/22 15:10:52;;;;;;;8.75;4.92;;;;;;;23.79;69.81;100633.91;2664480;89;21086;-68
2021/07/22 15:14:54;;;;;;;18.00;7.25;;;;;;;23.86;66.51;100633.90;2664417;89;21098;-68
2021/07/22 15:18:56;;;;;;;55.63;10.28;;;;;;;23.84;64.30;100627.84;2659083;89;21115;-69
2021/07/22 15:22:59;;;;;;;14.10;6.55;;;;;;;23.73;64.51;100625.73;2659878;89;21091;-68
2021/07/22 15:27:01;;;;;;;11.15;5.25;;;;;;;23.68;65.32;100621.77;2659573;89;21055;-68
2021/07/22 15:31:03;;;;;;;14.13;6.47;;;;;;;23.62;66.21;100617.67;2659339;89;21046;-69
2021/07/22 15:35:07;;;;;;;8.55;5.00;;;;;;;23.62;65.49;100616.31;2659900;89;21085;-66
2021/07/22 15:39:09;;;;;;;12.78;4.65;;;;;;;23.65;65.38;100614.00;2660393;89;21074;-67
2021/07/22 15:43:12;;;;;;;8.20;5.47;;;;;;;23.70;66.07;100618.83;2659542;89;21051;-70
2021/07/22 15:47:16;;;;;;;16.95;7.92;;;;;;;23.74;65.97;100618.73;2659715;89;21063;-68
2021/07/22 15:51:19;;;;;;;12.53;7.17;;;;;;;23.82;64.74;100606.84;2659729;89;21039;-68
2021/07/22 15:55:21;;;;;;;16.25;6.85;;;;;;;23.87;64.49;100604.88;2659991;89;21020;-69
2021/07/22 15:59:23;;;;;;;15.15;8.85;;;;;;;23.92;64.46;100603.72;2659864;89;21078;-68
2021/07/22 16:03:24;;;;;;;17.10;12.15;;;;;;;23.94;63.28;100602.48;2659561;89;21079;-67
2021/07/22 16:07:27;;;;;;;15.10;9.40;;;;;;;23.94;63.02;100594.84;2659636;89;21486;-69
2021/07/22 16:11:30;;;;;;;12.03;8.10;;;;;;;23.94;63.74;100594.33;2659702;89;21059;-67
2021/07/22 16:15:32;;;;;;;10.58;6.90;;;;;;;23.92;62.90;100589.63;2659640;89;21019;-69
2021/07/22 16:19:34;;;;;;;9.78;6.10;;;;;;;23.95;64.72;100588.36;2656934;89;21071;-72
2021/07/22 16:23:36;;;;;;;9.83;6.37;;;;;;;23.98;64.21;100578.47;2656621;89;21028;-68
2021/07/22 16:27:38;;;;;;;10.03;5.83;;;;;;;24.00;64.97;100579.59;2656084;89;21095;-67
2021/07/22 16:31:39;;;;;;;8.48;6.55;;;;;;;24.00;64.27;100568.73;2656417;89;21015;-70
2021/07/22 16:35:41;;;;;;;7.78;5.60;;;;;;;24.04;64.81;100564.07;2656435;89;21035;-68
2021/07/22 16:39:43;;;;;;;9.93;7.15;;;;;;;24.09;65.22;100561.55;2656508;89;21051;-68
2021/07/22 16:43:45;;;;;;;12.65;6.80;;;;;;;24.13;65.81;100559.77;2656451;89;21181;-71
2021/07/22 16:47:47;;;;;;;9.25;6.22;;;;;;;24.21;64.71;100556.33;2654084;89;21628;-68
2021/07/22 16:51:48;;;;;;;8.00;5.60;;;;;;;24.31;63.35;100553.18;2654896;89;21016;-69
2021/07/22 16:55:50;;;;;;;8.43;6.60;;;;;;;24.36;64.59;100550.66;2656449;89;21091;-68
2021/07/22 16:59:51;;;;;;;11.43;5.90;;;;;;;24.30;63.44;100545.25;2656608;89;21124;-68
2021/07/22 17:03:54;;;;;;;47.20;15.28;;;;;;;24.28;64.83;100537.30;2652491;89;21306;-68
2021/07/22 17:07:56;;;;;;;13.75;8.35;;;;;;;24.27;64.80;100534.27;2652690;89;21066;-68
2021/07/22 17:11:58;;;;;;;13.10;7.78;;;;;;;24.27;63.49;100534.27;2653353;89;21047;-70
2021/07/22 17:16:00;;;;;;;13.20;9.18;;;;;;;24.24;62.76;100533.34;2654240;89;21445;-71
2021/07/22 17:20:03;;;;;;;16.77;10.75;;;;;;;24.29;65.24;100534.07;2651358;89;21107;-70
2021/07/22 17:24:05;;;;;;;13.30;8.30;;;;;;;24.33;68.02;100529.88;2652587;89;22043;-70
2021/07/22 17:28:08;;;;;;;15.20;7.25;;;;;;;24.34;68.47;100532.36;2652085;89;21153;-67
2021/07/22 17:32:10;;;;;;;9.50;6.75;;;;;;;24.35;66.39;100527.24;2651821;88;21043;-67
2021/07/22 17:36:12;;;;;;;10.75;6.50;;;;;;;24.37;65.01;100527.89;2652985;89;21109;-71
2021/07/22 17:40:15;;;;;;;13.00;7.35;;;;;;;24.28;64.39;100531.86;2653695;89;21453;-70
2021/07/22 17:44:18;;;;;;;11.40;6.70;;;;;;;24.31;63.43;100523.28;2654146;89;21083;-69
2021/07/22 17:48:20;;;;;;;8.35;6.42;;;;;;;24.26;63.28;100524.45;2652362;89;21075;-67
2021/07/22 17:52:22;;;;;;;14.33;7.78;;;;;;;24.23;63.88;100524.33;2651803;89;21107;-69
2021/07/22 17:56:24;;;;;;;11.75;8.50;;;;;;;24.18;63.79;100520.06;2653631;89;21547;-71
2021/07/22 18:00:27;;;;;;;9.40;8.03;;;;;;;24.07;64.68;100518.81;2653189;89;21551;-71
2021/07/22 18:04:33;;;;;;;;;;;;;;;24.06;64.96;100519.86;2654167;89;21099;-70
2021/07/22 18:08:34;;;;;;;10.78;8.05;;;;;;;24.02;65.02;100517.26;2653279;89;20118;-69
2021/07/22 18:12:36;;;;;;;9.75;8.13;;;;;;;23.97;65.01;100517.00;2653276;89;21019;-71
2021/07/22 18:16:38;;;;;;;12.33;8.20;;;;;;;23.92;65.31;100513.58;2652663;89;21070;-68
2021/07/22 18:20:41;;;;;;;15.10;8.35;;;;;;;23.80;66.12;100518.80;2649780;89;21083;-69
2021/07/22 18:24:43;;;;;;;94.52;20.88;;;;;;;23.70;66.63;100518.89;2649831;89;21023;-69
2021/07/22 18:28:45;;;;;;;24.50;7.95;;;;;;;23.56;67.03;100516.66;2648338;89;21102;-70
2021/07/22 18:33:10;;;;;;;15.45;9.25;;;;;;;23.36;68.29;100512.88;2649178;89;21050;-69
2021/07/22 18:37:16;;;;;;;17.03;9.60;;;;;;;23.07;68.74;100518.90;2647226;89;21080;-68
2021/07/22 18:41:18;;;;;;;17.92;10.68;;;;;;;22.90;68.77;100513.54;2647349;89;21067;-70
2021/07/22 18:45:21;;;;;;;17.65;10.93;;;;;;;22.76;69.09;100512.61;2647832;89;21063;-69